Time;durP1;ratioP1;P1;durP2;ratioP2;P2;SDS_P1;SDS_P2;PMS_P1;PMS_P2;Temp;Humidity;BMP_temperature;BMP_pressure;BME280_temperature;BME280_humidity;BME280_pressure;Samples;Min_cycle;Max_cycle;Signal;HPM_P1;HPM_P2
2021/08/08 00:00:32;;;;;;;1.20;1.00;;;;;;;;;;6254162;28;20061;-79
2021/08/08 00:03:34;;;;;;;2.75;1.27;;;;;;;;;;6252399;28;20518;-79
2021/08/08 00:06:35;;;;;;;1.40;1.10;;;;;;;;;;6217196;28;20046;-79
2021/08/08 00:09:37;;;;;;;1.67;1.10;;;;;;;;;;6228591;28;20042;-79
2021/08/08 00:12:41;;;;;;;1.52;1.10;;;;;;;;;;6228633;28;20049;-79
2021/08/08 00:15:43;;;;;;;1.35;1.10;;;;;;;;;;6250901;28;20398;-79
2021/08/08 00:18:45;;;;;;;3.72;1.65;;;;;;;;;;6235077;28;20118;-79
2021/08/08 00:21:46;;;;;;;3.83;1.50;;;;;;;;;;6252138;28;20055;-78
2021/08/08 00:24:48;;;;;;;1.73;1.25;;;;;;;;;;6253497;28;20103;-79
2021/08/08 00:27:51;;;;;;;2.40;1.50;;;;;;;;;;6254869;28;20061;-79
2021/08/08 00:30:53;;;;;;;;;;;;;;;;;;6224181;28;20046;-79
2021/08/08 00:33:55;;;;;;;1.40;1.30;;;;;;;;;;6240773;28;20234;-78
2021/08/08 00:36:56;;;;;;;2.03;1.38;;;;;;;;;;6224261;28;20472;-79
2021/08/08 00:39:59;;;;;;;3.27;1.50;;;;;;;;;;6253110;28;20068;-79
2021/08/08 00:43:01;;;;;;;2.10;1.40;;;;;;;;;;6236431;28;20037;-79
2021/08/08 00:46:03;;;;;;;2.92;1.58;;;;;;;;;;6220902;28;20517;-79
2021/08/08 00:49:05;;;;;;;3.83;1.55;;;;;;;;;;6236775;28;20041;-79
2021/08/08 00:52:07;;;;;;;2.35;1.40;;;;;;;;;;6253071;28;20087;-79
2021/08/08 00:55:13;;;;;;;2.35;1.45;;;;;;;;;;6235772;28;20079;-79
2021/08/08 00:58:14;;;;;;;3.45;1.75;;;;;;;;;;6236332;28;20048;-79
2021/08/08 01:01:27;;;;;;;1.63;1.40;;;;;;;;;;6253309;28;20046;-79
2021/08/08 01:04:39;;;;;;;2.35;1.30;;;;;;;;;;6252083;28;20061;-78
2021/08/08 01:07:50;;;;;;;2.35;1.70;;;;;;;;;;6236656;28;20041;-79
2021/08/08 01:10:54;;;;;;;3.05;1.63;;;;;;;;;;6253480;28;20606;-79
2021/08/08 01:13:57;;;;;;;5.00;1.92;;;;;;;;;;6236188;28;20033;-79
2021/08/08 01:17:04;;;;;;;1.95;1.85;;;;;;;;;;6235706;28;20038;-79
2021/08/08 01:20:10;;;;;;;4.18;2.03;;;;;;;;;;6240253;28;20114;-79
2021/08/08 01:23:24;;;;;;;2.28;1.50;;;;;;;;;;6241149;28;20518;-80
2021/08/08 01:26:28;;;;;;;5.40;1.90;;;;;;;;;;6259232;28;20046;-79
2021/08/08 01:29:33;;;;;;;2.22;1.50;;;;;;;;;;6256585;28;20065;-79
2021/08/08 01:32:36;;;;;;;3.75;1.90;;;;;;;;;;6241587;28;20045;-79
2021/08/08 01:35:42;;;;;;;2.55;1.50;;;;;;;;;;6239448;28;20490;-79
2021/08/08 01:38:51;;;;;;;1.75;1.60;;;;;;;;;;6231792;28;20042;-79
2021/08/08 01:42:00;;;;;;;2.17;1.73;;;;;;;;;;6239409;28;20041;-79
2021/08/08 01:45:09;;;;;;;4.68;1.98;;;;;;;;;;6245011;28;20357;-79
2021/08/08 01:48:13;;;;;;;1.73;1.63;;;;;;;;;;6236708;28;20060;-79
2021/08/08 01:51:15;;;;;;;3.30;1.70;;;;;;;;;;6239352;28;20049;-79
2021/08/08 01:54:18;;;;;;;3.40;2.00;;;;;;;;;;6240084;28;20052;-79
2021/08/08 01:57:22;;;;;;;3.95;2.00;;;;;;;;;;6240222;28;20174;-79
2021/08/08 02:00:29;;;;;;;3.03;1.77;;;;;;;;;;6256039;28;20041;-79
2021/08/08 02:03:40;;;;;;;3.30;1.60;;;;;;;;;;6240682;28;20045;-79
2021/08/08 02:06:48;;;;;;;2.42;1.80;;;;;;;;;;6255326;28;20047;-79
2021/08/08 02:09:52;;;;;;;1.98;1.63;;;;;;;;;;6240191;28;20042;-79
2021/08/08 02:12:58;;;;;;;3.03;1.73;;;;;;;;;;6239778;28;20049;-79
2021/08/08 02:16:00;;;;;;;2.75;1.73;;;;;;;;;;6238196;28;20045;-79
2021/08/08 02:19:02;;;;;;;2.55;1.90;;;;;;;;;;6239560;28;20242;-79
2021/08/08 02:22:10;;;;;;;2.88;1.80;;;;;;;;;;6239641;28;20045;-79
2021/08/08 02:25:20;;;;;;;2.70;1.95;;;;;;;;;;6238976;28;20056;-79
2021/08/08 02:28:23;;;;;;;2.92;1.70;;;;;;;;;;6237552;28;20100;-79
2021/08/08 02:31:24;;;;;;;2.63;1.70;;;;;;;;;;6255787;28;20053;-79
2021/08/08 02:34:26;;;;;;;3.95;2.22;;;;;;;;;;6238424;28;20046;-79
2021/08/08 02:37:28;;;;;;;2.13;1.77;;;;;;;;;;6214848;28;20125;-79
2021/08/08 02:40:30;;;;;;;5.70;1.98;;;;;;;;;;6231641;28;20057;-79
2021/08/08 02:43:33;;;;;;;;;;;;;;;;;;6234028;28;20072;-79
2021/08/08 02:46:34;;;;;;;2.60;1.85;;;;;;;;;;6239083;28;19956;-80
2021/08/08 02:49:37;;;;;;;2.53;1.83;;;;;;;;;;6237830;28;20052;-79
2021/08/08 02:52:41;;;;;;;2.13;1.63;;;;;;;;;;6255026;28;20049;-79
2021/08/08 02:55:44;;;;;;;2.60;1.95;;;;;;;;;;6253797;28;20044;-79
2021/08/08 02:58:46;;;;;;;4.68;1.88;;;;;;;;;;6238378;28;20037;-79
2021/08/08 03:01:48;;;;;;;3.70;1.83;;;;;;;;;;6213146;28;20120;-79
2021/08/08 03:04:50;;;;;;;4.68;1.90;;;;;;;;;;6230741;28;20052;-79
2021/08/08 03:07:51;;;;;;;3.35;2.00;;;;;;;;;;6232096;28;20046;-79
2021/08/08 03:10:56;;;;;;;2.88;2.03;;;;;;;;;;6247865;28;20045;-79
2021/08/08 03:13:58;;;;;;;3.47;1.90;;;;;;;;;;6227814;28;20058;-79
2021/08/08 03:17:00;;;;;;;2.50;1.90;;;;;;;;;;6232008;28;20053;-79
2021/08/08 03:20:02;;;;;;;4.78;2.10;;;;;;;;;;6230913;28;20042;-79
2021/08/08 03:23:05;;;;;;;;;;;;;;;;;;6230299;28;20068;-79
2021/08/08 03:26:06;;;;;;;2.53;2.08;;;;;;;;;;6232672;28;19922;-79
2021/08/08 03:29:12;;;;;;;2.53;2.28;;;;;;;;;;6226315;28;20042;-81
2021/08/08 03:32:16;;;;;;;2.50;2.10;;;;;;;;;;6225351;28;20045;-81
2021/08/08 03:35:18;;;;;;;3.47;2.05;;;;;;;;;;6226187;28;20045;-81
2021/08/08 03:38:19;;;;;;;6.10;2.55;;;;;;;;;;6227563;28;20047;-81
2021/08/08 03:41:21;;;;;;;2.80;2.55;;;;;;;;;;6225993;28;20426;-81
2021/08/08 03:44:23;;;;;;;4.47;2.40;;;;;;;;;;6211105;28;20049;-81
2021/08/08 03:47:25;;;;;;;3.60;2.33;;;;;;;;;;6218675;28;20148;-81
2021/08/08 03:50:27;;;;;;;3.42;2.20;;;;;;;;;;6225731;28;20045;-81
2021/08/08 03:53:29;;;;;;;3.03;1.80;;;;;;;;;;6243332;28;20176;-81
2021/08/08 03:56:34;;;;;;;3.83;2.25;;;;;;;;;;6242574;28;20502;-81
2021/08/08 03:59:38;;;;;;;5.25;2.42;;;;;;;;;;6225700;28;20053;-81
2021/08/08 04:02:42;;;;;;;4.22;2.33;;;;;;;;;;6226558;28;20563;-81
2021/08/08 04:05:48;;;;;;;2.92;2.25;;;;;;;;;;6215536;28;20049;-80
2021/08/08 04:08:50;;;;;;;6.88;2.40;;;;;;;;;;6201644;28;20487;-81
2021/08/08 04:11:53;;;;;;;5.38;2.63;;;;;;;;;;6217888;28;20038;-80
2021/08/08 04:14:54;;;;;;;5.63;2.60;;;;;;;;;;6226527;28;20175;-80
2021/08/08 04:17:56;;;;;;;4.68;2.47;;;;;;;;;;6241247;28;20415;-80
2021/08/08 04:20:59;;;;;;;4.45;2.55;;;;;;;;;;6214538;28;20411;-81
2021/08/08 04:24:00;;;;;;;5.20;2.72;;;;;;;;;;6223520;28;20091;-81
2021/08/08 04:27:03;;;;;;;4.95;2.83;;;;;;;;;;6224910;28;20682;-80
2021/08/08 04:30:06;;;;;;;3.65;2.70;;;;;;;;;;6240051;28;20050;-80
2021/08/08 04:33:09;;;;;;;6.95;3.60;;;;;;;;;;6225418;28;20049;-80
2021/08/08 04:36:10;;;;;;;4.10;2.40;;;;;;;;;;6222584;28;20095;-80
2021/08/08 04:39:12;;;;;;;6.05;2.33;;;;;;;;;;6227731;28;20042;-80
2021/08/08 04:42:16;;;;;;;3.40;2.20;;;;;;;;;;6229529;28;20054;-80
2021/08/08 04:45:20;;;;;;;4.63;2.33;;;;;;;;;;6245782;28;20977;-80
2021/08/08 04:48:22;;;;;;;3.92;2.30;;;;;;;;;;6221127;28;20053;-80
2021/08/08 04:51:24;;;;;;;4.10;2.25;;;;;;;;;;6195423;28;20042;-80
2021/08/08 04:54:26;;;;;;;3.55;2.25;;;;;;;;;;6217787;28;20754;-80
2021/08/08 04:57:27;;;;;;;5.18;2.35;;;;;;;;;;6207178;28;20050;-81
2021/08/08 05:00:29;;;;;;;6.50;2.35;;;;;;;;;;6215036;28;20499;-80
2021/08/08 05:03:31;;;;;;;3.92;2.50;;;;;;;;;;6204508;28;20042;-80
2021/08/08 05:06:33;;;;;;;5.57;2.20;;;;;;;;;;6225732;28;20606;-80
2021/08/08 05:09:35;;;;;;;5.97;2.05;;;;;;;;;;6201265;28;20044;-81
2021/08/08 05:12:37;;;;;;;4.88;2.40;;;;;;;;;;6224672;28;20092;-81
2021/08/08 05:15:39;;;;;;;3.43;2.40;;;;;;;;;;6201641;28;20052;-81
2021/08/08 05:18:41;;;;;;;5.10;2.80;;;;;;;;;;6193164;28;20445;-81
2021/08/08 05:21:43;;;;;;;6.07;2.50;;;;;;;;;;6182096;28;20050;-80
2021/08/08 05:24:45;;;;;;;5.63;2.45;;;;;;;;;;6181846;28;20052;-81
2021/08/08 05:27:48;;;;;;;4.80;2.38;;;;;;;;;;6206425;28;20121;-80
2021/08/08 05:30:52;;;;;;;5.72;2.50;;;;;;;;;;6240828;28;20041;-81
2021/08/08 05:33:55;;;;;;;5.28;2.28;;;;;;;;;;6224418;28;20132;-81
2021/08/08 05:36:58;;;;;;;3.08;2.70;;;;;;;;;;6203618;28;20065;-81
2021/08/08 05:40:05;;;;;;;5.10;2.35;;;;;;;;;;6198788;28;20092;-81
2021/08/08 05:43:11;;;;;;;2.80;2.25;;;;;;;;;;6215541;28;20045;-81
2021/08/08 05:46:13;;;;;;;2.60;1.98;;;;;;;;;;6214605;28;20037;-81
2021/08/08 05:49:15;;;;;;;2.45;1.98;;;;;;;;;;6225245;28;20050;-81
2021/08/08 05:52:17;;;;;;;3.92;2.40;;;;;;;;;;6202552;28;20056;-81
2021/08/08 05:55:19;;;;;;;3.83;2.00;;;;;;;;;;6219308;28;20046;-81
2021/08/08 05:58:21;;;;;;;3.90;2.55;;;;;;;;;;6220260;28;20050;-80
2021/08/08 06:01:23;;;;;;;3.60;2.60;;;;;;;;;;6237665;28;20473;-80
2021/08/08 06:04:25;;;;;;;3.37;2.03;;;;;;;;;;6204436;28;20045;-80
2021/08/08 06:07:28;;;;;;;4.00;2.22;;;;;;;;;;6244337;28;20044;-81
2021/08/08 06:10:30;;;;;;;3.05;2.20;;;;;;;;;;6241206;28;20656;-80
2021/08/08 06:13:32;;;;;;;5.10;2.25;;;;;;;;;;6223229;28;20052;-80
2021/08/08 06:16:34;;;;;;;2.13;1.85;;;;;;;;;;6248264;28;20060;-80
2021/08/08 06:19:36;;;;;;;5.85;1.70;;;;;;;;;;6230276;28;20774;-80
2021/08/08 06:22:38;;;;;;;4.95;2.05;;;;;;;;;;6207180;28;20057;-79
2021/08/08 06:25:39;;;;;;;3.63;2.20;;;;;;;;;;6225972;28;20509;-80
2021/08/08 06:28:41;;;;;;;4.25;2.08;;;;;;;;;;6224143;28;20042;-79
2021/08/08 06:31:43;;;;;;;3.40;1.88;;;;;;;;;;6213841;28;20507;-80
2021/08/08 06:34:45;;;;;;;3.55;2.33;;;;;;;;;;6234872;28;20384;-80
2021/08/08 06:37:46;;;;;;;3.30;2.10;;;;;;;;;;6247555;28;20042;-79
2021/08/08 06:40:50;;;;;;;3.53;2.00;;;;;;;;;;6226019;28;20559;-79
2021/08/08 06:43:52;;;;;;;3.95;2.17;;;;;;;;;;6195278;28;20952;-79
2021/08/08 06:46:55;;;;;;;8.02;2.30;;;;;;;;;;6205825;28;20045;-80
2021/08/08 06:49:58;;;;;;;2.97;1.98;;;;;;;;;;6223971;28;20037;-80
2021/08/08 06:52:59;;;;;;;2.03;1.80;;;;;;;;;;6228462;28;20037;-80
2021/08/08 06:56:01;;;;;;;4.68;2.25;;;;;;;;;;6205015;28;20046;-79
2021/08/08 06:59:05;;;;;;;4.53;2.50;;;;;;;;;;6226947;28;20052;-80
2021/08/08 07:02:07;;;;;;;3.53;2.08;;;;;;;;;;6244116;28;20037;-80
2021/08/08 07:05:09;;;;;;;2.08;1.88;;;;;;;;;;6244504;28;20049;-80
2021/08/08 07:08:12;;;;;;;;;;;;;;;;;;6211749;28;20049;-80
2021/08/08 07:11:14;;;;;;;3.42;2.30;;;;;;;;;;6227000;28;19983;-79
2021/08/08 07:14:16;;;;;;;3.83;2.13;;;;;;;;;;6189194;28;20062;-81
2021/08/08 07:17:17;;;;;;;6.70;2.30;;;;;;;;;;6212386;28;20050;-80
2021/08/08 07:20:20;;;;;;;2.80;2.00;;;;;;;;;;6210578;28;20056;-80
2021/08/08 07:23:23;;;;;;;3.53;2.20;;;;;;;;;;6230494;28;20053;-80
2021/08/08 07:26:24;;;;;;;5.50;2.10;;;;;;;;;;6232314;28;20451;-80
2021/08/08 07:29:26;;;;;;;7.85;1.58;;;;;;;;;;6229177;28;20060;-80
2021/08/08 07:32:31;;;;;;;3.92;2.05;;;;;;;;;;6222237;28;20065;-80
2021/08/08 07:35:36;;;;;;;5.30;2.10;;;;;;;;;;6219405;28;20053;-80
2021/08/08 07:38:37;;;;;;;4.25;1.90;;;;;;;;;;6224281;28;20046;-80
2021/08/08 07:41:40;;;;;;;4.00;2.00;;;;;;;;;;6221697;28;20127;-80
2021/08/08 07:44:41;;;;;;;3.55;2.20;;;;;;;;;;6218711;28;20041;-80
2021/08/08 07:47:44;;;;;;;4.40;1.88;;;;;;;;;;6227319;28;20125;-81
2021/08/08 07:50:45;;;;;;;2.67;2.00;;;;;;;;;;6229423;28;20048;-80
2021/08/08 07:53:47;;;;;;;4.50;1.92;;;;;;;;;;6246304;28;20048;-81
2021/08/08 07:56:49;;;;;;;4.35;1.85;;;;;;;;;;6211710;28;20142;-80
2021/08/08 07:59:51;;;;;;;4.25;1.80;;;;;;;;;;6226430;28;20045;-80
2021/08/08 08:02:53;;;;;;;4.60;2.08;;;;;;;;;;6225944;28;20056;-80
2021/08/08 08:05:58;;;;;;;4.10;2.30;;;;;;;;;;6211024;28;20503;-80
2021/08/08 08:09:00;;;;;;;3.47;1.90;;;;;;;;;;6197667;28;20056;-80
2021/08/08 08:12:02;;;;;;;5.55;2.85;;;;;;;;;;6221891;28;20045;-80
2021/08/08 08:15:05;;;;;;;6.00;2.13;;;;;;;;;;6209843;28;20037;-80
2021/08/08 08:18:08;;;;;;;2.72;2.05;;;;;;;;;;6225655;28;20079;-80
2021/08/08 08:21:09;;;;;;;3.83;1.92;;;;;;;;;;6226158;28;20072;-80
2021/08/08 08:24:12;;;;;;;4.32;1.85;;;;;;;;;;6226915;28;20057;-80
2021/08/08 08:27:14;;;;;;;2.42;1.88;;;;;;;;;;6226967;28;20052;-80
2021/08/08 08:30:16;;;;;;;3.47;1.83;;;;;;;;;;6197388;28;20054;-80
2021/08/08 08:33:17;;;;;;;3.85;1.70;;;;;;;;;;6209417;28;20042;-81
2021/08/08 08:36:19;;;;;;;2.90;1.70;;;;;;;;;;6234126;28;20049;-80
2021/08/08 08:39:21;;;;;;;5.35;1.80;;;;;;;;;;6228588;28;20188;-79
2021/08/08 08:42:24;;;;;;;4.63;1.60;;;;;;;;;;6228009;28;20573;-80
2021/08/08 08:45:26;;;;;;;2.15;1.60;;;;;;;;;;6226187;28;20120;-80
2021/08/08 08:48:30;;;;;;;2.97;1.60;;;;;;;;;;6245606;28;20053;-80
2021/08/08 08:51:41;;;;;;;3.88;1.60;;;;;;;;;;6228585;28;20057;-80
2021/08/08 08:54:43;;;;;;;6.80;2.00;;;;;;;;;;6225291;28;20045;-81
2021/08/08 08:57:46;;;;;;;2.67;1.33;;;;;;;;;;6245477;28;20421;-80
2021/08/08 09:00:48;;;;;;;4.10;1.67;;;;;;;;;;6246958;28;20048;-81
2021/08/08 09:03:50;;;;;;;5.53;2.00;;;;;;;;;;6229676;28;20090;-81
2021/08/08 09:06:51;;;;;;;5.57;1.60;;;;;;;;;;6246199;28;20048;-81
2021/08/08 09:09:56;;;;;;;3.35;1.73;;;;;;;;;;6230481;28;20045;-79
2021/08/08 09:13:04;;;;;;;3.47;1.60;;;;;;;;;;6231464;28;20053;-80
2021/08/08 09:16:14;;;;;;;2.80;1.65;;;;;;;;;;6237708;28;20045;-80
2021/08/08 09:19:27;;;;;;;6.25;1.73;;;;;;;;;;6246186;28;20049;-78
2021/08/08 09:22:38;;;;;;;2.35;1.38;;;;;;;;;;6227769;28;20045;-80
2021/08/08 09:25:56;;;;;;;4.30;2.28;;;;;;;;;;6228589;28;20116;-80
2021/08/08 09:29:08;;;;;;;3.25;1.50;;;;;;;;;;6244273;28;20093;-80
2021/08/08 09:32:11;;;;;;;3.15;1.60;;;;;;;;;;6249274;28;20042;-81
2021/08/08 09:35:19;;;;;;;5.32;1.90;;;;;;;;;;6248839;28;20042;-79
2021/08/08 09:38:22;;;;;;;4.35;1.50;;;;;;;;;;6236404;28;20103;-79
2021/08/08 09:41:24;;;;;;;3.80;1.50;;;;;;;;;;6251627;28;20061;-78
2021/08/08 09:44:26;;;;;;;5.20;1.40;;;;;;;;;;6239002;28;20116;-79
2021/08/08 09:47:42;;;;;;;3.30;1.63;;;;;;;;;;6236297;28;20110;-80
2021/08/08 09:50:45;;;;;;;1.52;1.27;;;;;;;;;;6222174;28;20136;-79
2021/08/08 09:53:54;;;;;;;5.65;1.70;;;;;;;;;;6256607;28;20069;-80
2021/08/08 09:56:57;;;;;;;2.75;1.48;;;;;;;;;;6254985;28;20105;-79
2021/08/08 09:59:59;;;;;;;3.63;1.90;;;;;;;;;;6253907;28;20071;-79
2021/08/08 10:03:06;;;;;;;3.97;1.50;;;;;;;;;;6253056;28;20045;-80
2021/08/08 10:06:11;;;;;;;2.38;1.27;;;;;;;;;;6247780;28;20061;-79
2021/08/08 10:09:17;;;;;;;3.05;1.42;;;;;;;;;;6249034;28;20045;-78
2021/08/08 10:12:22;;;;;;;4.28;1.55;;;;;;;;;;6221418;28;20100;-80
2021/08/08 10:15:25;;;;;;;4.45;1.63;;;;;;;;;;6223215;28;20056;-79
2021/08/08 10:18:35;;;;;;;3.42;1.58;;;;;;;;;;6223679;28;20045;-80
2021/08/08 10:21:41;;;;;;;2.58;1.42;;;;;;;;;;6225483;28;20113;-79
2021/08/08 10:24:46;;;;;;;3.95;1.58;;;;;;;;;;6225776;28;20045;-80
2021/08/08 10:27:49;;;;;;;3.45;1.52;;;;;;;;;;6228663;28;20042;-80
2021/08/08 10:30:51;;;;;;;1.85;1.40;;;;;;;;;;6227610;28;20120;-81
2021/08/08 10:33:55;;;;;;;4.67;1.50;;;;;;;;;;6229099;28;20037;-81
2021/08/08 10:37:14;;;;;;;2.63;1.75;;;;;;;;;;6228684;28;20445;-81
2021/08/08 10:40:26;;;;;;;4.53;1.73;;;;;;;;;;6229906;28;20045;-81
2021/08/08 10:43:28;;;;;;;3.57;1.40;;;;;;;;;;6228730;28;20513;-80
2021/08/08 10:46:30;;;;;;;4.50;1.48;;;;;;;;;;6227053;28;20448;-80
2021/08/08 10:49:33;;;;;;;5.22;1.70;;;;;;;;;;6217786;28;20052;-79
2021/08/08 10:52:39;;;;;;;4.97;2.05;;;;;;;;;;6210408;28;20050;-80
2021/08/08 10:55:41;;;;;;;4.38;1.83;;;;;;;;;;6222915;28;20045;-79
2021/08/08 10:58:48;;;;;;;3.55;1.50;;;;;;;;;;6221354;28;20052;-80
2021/08/08 11:02:16;;;;;;;4.55;2.08;;;;;;;;;;6221178;28;20125;-80
2021/08/08 11:05:18;;;;;;;2.60;1.65;;;;;;;;;;6191080;28;20048;-81
2021/08/08 11:08:23;;;;;;;3.92;1.95;;;;;;;;;;6208595;28;20052;-80
2021/08/08 11:11:29;;;;;;;3.85;1.90;;;;;;;;;;6214880;28;20534;-81
2021/08/08 11:14:31;;;;;;;5.70;1.83;;;;;;;;;;6213546;28;20045;-80
2021/08/08 11:17:34;;;;;;;3.60;1.98;;;;;;;;;;6206957;28;20176;-80
2021/08/08 11:20:42;;;;;;;5.28;1.65;;;;;;;;;;6210291;28;20160;-81
2021/08/08 11:23:44;;;;;;;2.90;1.45;;;;;;;;;;6224315;28;20132;-81
2021/08/08 11:26:48;;;;;;;5.50;1.55;;;;;;;;;;6210057;28;20134;-82
2021/08/08 11:29:51;;;;;;;3.50;1.30;;;;;;;;;;6211274;28;20056;-82
2021/08/08 11:32:54;;;;;;;4.45;1.40;;;;;;;;;;6224978;28;20053;-81
2021/08/08 11:36:00;;;;;;;2.30;1.42;;;;;;;;;;6241855;28;20059;-80
2021/08/08 11:39:06;;;;;;;2.22;1.30;;;;;;;;;;6246103;28;20051;-82
2021/08/08 11:42:09;;;;;;;4.50;1.30;;;;;;;;;;6245347;28;20091;-82
2021/08/08 11:45:11;;;;;;;2.88;1.13;;;;;;;;;;6190018;28;20105;-81
2021/08/08 11:48:19;;;;;;;3.53;1.40;;;;;;;;;;6218156;28;20046;-81
2021/08/08 11:51:20;;;;;;;2.33;1.10;;;;;;;;;;6247176;28;20511;-81
2021/08/08 11:54:27;;;;;;;3.75;1.40;;;;;;;;;;6228387;28;20029;-82
2021/08/08 11:57:30;;;;;;;3.08;1.60;;;;;;;;;;6247319;28;20173;-82
2021/08/08 12:00:35;;;;;;;3.83;1.58;;;;;;;;;;6244377;28;20048;-82
2021/08/08 12:03:37;;;;;;;3.85;1.40;;;;;;;;;;6245916;28;20073;-82
2021/08/08 12:06:39;;;;;;;5.25;1.52;;;;;;;;;;6229218;28;20046;-81
2021/08/08 12:09:46;;;;;;;1.30;1.10;;;;;;;;;;6232658;28;20051;-81
2021/08/08 12:12:48;;;;;;;3.67;1.50;;;;;;;;;;6244138;28;20419;-80
2021/08/08 12:15:50;;;;;;;2.65;1.38;;;;;;;;;;6242471;28;20047;-81
2021/08/08 12:18:56;;;;;;;3.35;1.30;;;;;;;;;;6243780;28;20055;-80
2021/08/08 12:22:04;;;;;;;4.03;1.50;;;;;;;;;;6207850;28;20046;-81
2021/08/08 12:25:14;;;;;;;2.83;1.60;;;;;;;;;;6220259;28;20037;-79
2021/08/08 12:28:23;;;;;;;4.57;1.67;;;;;;;;;;6209365;28;20142;-80
2021/08/08 12:31:34;;;;;;;4.07;1.50;;;;;;;;;;6233764;28;20053;-79
2021/08/08 12:34:36;;;;;;;3.05;1.33;;;;;;;;;;6241699;28;20056;-79
2021/08/08 12:37:39;;;;;;;3.85;1.40;;;;;;;;;;6225423;28;20053;-79
2021/08/08 12:40:45;;;;;;;3.33;1.50;;;;;;;;;;6223626;28;20045;-79
2021/08/08 12:43:53;;;;;;;4.38;1.92;;;;;;;;;;6223259;28;20049;-80
2021/08/08 12:46:59;;;;;;;5.78;1.88;;;;;;;;;;6240834;28;20121;-80
2021/08/08 12:50:19;;;;;;;3.60;2.05;;;;;;;;;;6239139;28;20049;-81
2021/08/08 12:53:21;;;;;;;3.25;1.60;;;;;;;;;;6210964;28;20049;-79
2021/08/08 12:56:22;;;;;;;3.35;1.38;;;;;;;;;;6230845;28;20045;-81
2021/08/08 12:59:24;;;;;;;3.92;1.42;;;;;;;;;;6227538;28;20041;-80
2021/08/08 13:02:26;;;;;;;1.38;1.13;;;;;;;;;;6214276;28;20048;-80
2021/08/08 13:05:28;;;;;;;2.30;1.33;;;;;;;;;;6231525;28;20046;-80
2021/08/08 13:08:29;;;;;;;3.08;1.27;;;;;;;;;;6210824;28;20470;-80
2021/08/08 13:11:31;;;;;;;1.75;1.38;;;;;;;;;;6212257;28;20042;-81
2021/08/08 13:14:33;;;;;;;4.57;1.45;;;;;;;;;;6218432;28;20049;-81
2021/08/08 13:17:37;;;;;;;3.50;1.80;;;;;;;;;;6221967;28;20042;-80
2021/08/08 13:20:39;;;;;;;4.18;1.80;;;;;;;;;;6212090;28;20051;-81
2021/08/08 13:23:45;;;;;;;4.28;1.77;;;;;;;;;;6236919;28;20056;-82
2021/08/08 13:26:46;;;;;;;3.70;1.80;;;;;;;;;;6223591;28;20128;-81
2021/08/08 13:29:48;;;;;;;5.20;2.55;;;;;;;;;;6243038;28;20045;-81
2021/08/08 13:32:49;;;;;;;6.72;2.70;;;;;;;;;;6223252;28;20041;-81
2021/08/08 13:35:52;;;;;;;3.67;2.20;;;;;;;;;;6219075;28;20050;-81
2021/08/08 13:38:54;;;;;;;4.65;1.95;;;;;;;;;;6246797;28;20045;-81
2021/08/08 13:41:56;;;;;;;4.28;1.98;;;;;;;;;;6245721;28;20481;-81
2021/08/08 13:44:57;;;;;;;7.85;2.28;;;;;;;;;;6240814;28;20073;-81
2021/08/08 13:47:59;;;;;;;5.60;2.35;;;;;;;;;;6244698;28;20041;-81
2021/08/08 13:51:01;;;;;;;5.18;2.05;;;;;;;;;;6193350;28;20125;-81
2021/08/08 13:54:03;;;;;;;3.00;2.03;;;;;;;;;;6219765;28;20042;-81
2021/08/08 13:57:05;;;;;;;3.63;2.20;;;;;;;;;;6218418;28;20038;-81
2021/08/08 14:00:07;;;;;;;3.47;1.88;;;;;;;;;;6242579;28;20042;-80
2021/08/08 14:03:17;;;;;;;3.78;2.13;;;;;;;;;;6245606;28;20106;-81
2021/08/08 14:06:19;;;;;;;3.42;1.90;;;;;;;;;;6244269;28;20048;-81
2021/08/08 14:09:22;;;;;;;4.47;1.70;;;;;;;;;;6239305;28;20483;-81
2021/08/08 14:12:24;;;;;;;4.72;1.70;;;;;;;;;;6220860;28;20117;-80
2021/08/08 14:15:25;;;;;;;2.75;1.55;;;;;;;;;;6242913;28;20049;-80
2021/08/08 14:18:27;;;;;;;2.08;1.67;;;;;;;;;;6243804;28;20050;-80
2021/08/08 14:21:29;;;;;;;4.03;1.88;;;;;;;;;;6195279;28;20056;-80
2021/08/08 14:24:30;;;;;;;4.00;1.85;;;;;;;;;;6218323;28;20129;-80
2021/08/08 14:27:35;;;;;;;3.80;1.65;;;;;;;;;;6207777;28;20623;-79
2021/08/08 14:30:37;;;;;;;1.88;1.40;;;;;;;;;;6235316;28;20045;-80
2021/08/08 14:33:38;;;;;;;4.47;1.70;;;;;;;;;;6243911;28;20073;-80
2021/08/08 14:36:41;;;;;;;3.97;1.45;;;;;;;;;;6227172;28;20056;-80
2021/08/08 14:39:43;;;;;;;2.85;1.58;;;;;;;;;;6241983;28;20041;-79
2021/08/08 14:42:45;;;;;;;3.20;1.60;;;;;;;;;;6240522;28;20045;-81
2021/08/08 14:45:47;;;;;;;3.70;1.75;;;;;;;;;;6232210;28;20058;-81
2021/08/08 14:48:49;;;;;;;3.72;1.30;;;;;;;;;;6253294;28;20072;-81
2021/08/08 14:51:53;;;;;;;3.30;1.50;;;;;;;;;;6260383;28;20038;-81
2021/08/08 14:54:54;;;;;;;3.60;1.40;;;;;;;;;;6253674;28;20111;-81
2021/08/08 14:57:56;;;;;;;2.45;1.35;;;;;;;;;;6224764;28;20101;-81
2021/08/08 15:00:58;;;;;;;2.03;1.30;;;;;;;;;;6230474;28;20045;-80
2021/08/08 15:04:01;;;;;;;2.80;1.50;;;;;;;;;;6249283;28;20049;-81
2021/08/08 15:07:03;;;;;;;2.00;1.33;;;;;;;;;;6223343;28;20045;-81
2021/08/08 15:10:06;;;;;;;3.17;1.70;;;;;;;;;;6256052;28;20072;-81
2021/08/08 15:13:07;;;;;;;1.65;1.20;;;;;;;;;;6249444;28;20038;-81
2021/08/08 15:16:09;;;;;;;2.55;1.50;;;;;;;;;;6248216;28;20081;-81
2021/08/08 15:19:11;;;;;;;2.30;1.23;;;;;;;;;;6232158;28;20041;-81
2021/08/08 15:22:13;;;;;;;2.80;1.40;;;;;;;;;;6236927;28;20057;-82
2021/08/08 15:25:15;;;;;;;2.35;1.30;;;;;;;;;;6254851;28;20269;-81
2021/08/08 15:28:16;;;;;;;3.05;1.30;;;;;;;;;;6233598;28;20109;-82
2021/08/08 15:31:19;;;;;;;2.25;1.23;;;;;;;;;;6212152;28;20057;-80
2021/08/08 15:34:21;;;;;;;1.60;1.48;;;;;;;;;;6227765;28;20381;-81
2021/08/08 15:37:23;;;;;;;2.13;1.30;;;;;;;;;;6188255;28;20061;-81
2021/08/08 15:40:24;;;;;;;3.42;1.30;;;;;;;;;;6230060;28;20105;-81
2021/08/08 15:43:46;;;;;;;2.80;1.33;;;;;;;;;;6250948;28;20104;-81
2021/08/08 15:46:47;;;;;;;4.05;1.50;;;;;;;;;;6232426;28;20116;-80
2021/08/08 15:49:49;;;;;;;2.33;1.20;;;;;;;;;;6231895;28;20052;-82
2021/08/08 15:52:51;;;;;;;4.78;1.52;;;;;;;;;;6254711;28;20038;-81
2021/08/08 15:55:54;;;;;;;2.85;1.50;;;;;;;;;;6237186;28;20056;-81
2021/08/08 15:58:55;;;;;;;3.97;1.40;;;;;;;;;;6254187;28;20069;-82
2021/08/08 16:01:57;;;;;;;3.20;1.42;;;;;;;;;;6251488;28;20049;-82
2021/08/08 16:04:58;;;;;;;1.85;1.58;;;;;;;;;;6237895;28;20148;-82
2021/08/08 16:08:00;;;;;;;1.83;1.40;;;;;;;;;;6254604;28;20045;-81
2021/08/08 16:11:06;;;;;;;2.95;1.45;;;;;;;;;;6237996;28;20045;-81
2021/08/08 16:14:08;;;;;;;4.05;1.70;;;;;;;;;;6253370;28;20084;-81
2021/08/08 16:17:09;;;;;;;1.65;1.50;;;;;;;;;;6253164;28;20096;-81
2021/08/08 16:20:12;;;;;;;1.58;1.40;;;;;;;;;;6229486;28;20042;-81
2021/08/08 16:23:13;;;;;;;2.97;1.65;;;;;;;;;;6253878;28;20053;-84
2021/08/08 16:26:15;;;;;;;2.78;1.50;;;;;;;;;;6253023;28;20041;-81
2021/08/08 16:29:17;;;;;;;3.47;1.70;;;;;;;;;;6253727;28;20065;-81
2021/08/08 16:32:22;;;;;;;4.60;1.80;;;;;;;;;;6213432;28;20120;-81
2021/08/08 16:35:24;;;;;;;4.57;1.60;;;;;;;;;;6236819;28;20099;-80
2021/08/08 16:38:25;;;;;;;3.70;1.80;;;;;;;;;;6254117;28;20045;-81
2021/08/08 16:41:27;;;;;;;2.88;1.80;;;;;;;;;;6252174;28;20082;-81
2021/08/08 16:44:28;;;;;;;3.80;1.52;;;;;;;;;;6252316;28;20101;-82
2021/08/08 16:47:30;;;;;;;2.15;1.30;;;;;;;;;;6252731;28;20042;-81
2021/08/08 16:50:31;;;;;;;2.88;1.63;;;;;;;;;;6253199;28;20107;-81
2021/08/08 16:53:33;;;;;;;6.45;2.65;;;;;;;;;;6253980;28;20047;-81
2021/08/08 16:56:35;;;;;;;4.05;1.63;;;;;;;;;;6254210;28;20037;-82
2021/08/08 16:59:37;;;;;;;2.78;1.63;;;;;;;;;;6252971;28;20043;-82
2021/08/08 17:02:47;;;;;;;2.88;1.50;;;;;;;;;;6236493;28;20052;-82
2021/08/08 17:05:51;;;;;;;3.20;1.48;;;;;;;;;;6252765;28;20068;-81
2021/08/08 17:08:54;;;;;;;2.38;1.45;;;;;;;;;;6254410;28;20104;-81
2021/08/08 17:11:55;;;;;;;3.40;1.50;;;;;;;;;;6253370;28;20092;-81
2021/08/08 17:15:00;;;;;;;1.75;1.48;;;;;;;;;;6252356;28;20499;-81
2021/08/08 17:18:02;;;;;;;3.10;1.50;;;;;;;;;;6236662;28;20137;-80
2021/08/08 17:21:04;;;;;;;2.85;1.58;;;;;;;;;;6251948;28;20068;-81
2021/08/08 17:24:05;;;;;;;3.60;1.58;;;;;;;;;;6254400;28;20046;-80
2021/08/08 17:27:08;;;;;;;2.05;1.50;;;;;;;;;;6254159;28;20123;-82
2021/08/08 17:30:10;;;;;;;1.67;1.50;;;;;;;;;;6237664;28;20042;-81
2021/08/08 17:33:12;;;;;;;3.47;1.70;;;;;;;;;;6233350;28;20057;-81
2021/08/08 17:36:13;;;;;;;3.25;1.85;;;;;;;;;;6248990;28;20056;-80
2021/08/08 17:39:16;;;;;;;2.75;1.30;;;;;;;;;;6252616;28;20097;-80
2021/08/08 17:42:19;;;;;;;8.52;1.42;;;;;;;;;;6228359;28;20062;-80
2021/08/08 17:45:22;;;;;;;2.38;1.70;;;;;;;;;;6217367;28;20753;-80
2021/08/08 17:48:24;;;;;;;2.97;1.50;;;;;;;;;;6227012;28;20057;-80
2021/08/08 17:51:27;;;;;;;2.80;1.60;;;;;;;;;;6228429;28;20050;-81
2021/08/08 17:54:29;;;;;;;4.57;1.90;;;;;;;;;;6226081;28;20049;-80
2021/08/08 17:57:31;;;;;;;2.20;1.40;;;;;;;;;;6227428;28;20052;-81
2021/08/08 18:00:34;;;;;;;;;;;;;;;;;;6224634;28;20437;-81
2021/08/08 18:03:36;;;;;;;3.03;1.52;;;;;;;;;;6229791;28;19994;-81
2021/08/08 18:06:39;;;;;;;3.55;1.30;;;;;;;;;;6227839;28;20096;-82
2021/08/08 18:09:41;;;;;;;5.18;2.00;;;;;;;;;;6228971;28;20442;-80
2021/08/08 18:12:43;;;;;;;2.83;1.50;;;;;;;;;;6256053;28;20052;-80
2021/08/08 18:15:44;;;;;;;3.10;1.70;;;;;;;;;;6256471;28;20110;-81
2021/08/08 18:18:46;;;;;;;2.40;1.63;;;;;;;;;;6254529;28;20041;-81
2021/08/08 18:21:48;;;;;;;5.50;1.90;;;;;;;;;;6254592;28;20045;-81